• Join FlightAware (Why Join?)
  • Login
  • US Flag GB Flag 
18:33 EDT


 

Airport Tracker/Info


-or-


 

Live Flight TrackerFlight Track Log ✈ N131PT ✈ 30-Oct-2013 ✈ KFVX - W29

Flight Track Log - Related Links

Times and Time Zones

All times are in EDT time to prevent confusion due to time zone crossing. See the N131PT flight status page for this flight to view local times or setup timezone preferences in your user account.

Time Position Orientation Groundspeed Altitude Reporting Facility
EDT Latitude Longitude Course Direction KTS MPH feet Rate Location/Type
14:07 37.3642 -78.3250 58° Northeast 216 249 3,200  Level Washington Center
14:08 37.3883 -78.2764 58° Northeast 204 235 4,500 1,200 Climbing Washington Center
14:09 37.4122 -78.2300 57° Northeast 178 205 5,700 1,200 Climbing Washington Center
14:10 37.4361 -78.1811 58° Northeast 165 190 6,900 1,260 Climbing Washington Center
14:11 37.4603 -78.1244 62° Northeast 160 184 8,200 1,140 Climbing Washington Center
14:12 37.4864 -78.0731 57° Northeast 160 184 9,300 1,020 Climbing Washington Center
14:13 37.5106 -78.0214 59° Northeast 165 190 10,300 960 Climbing Washington Center
14:14 37.5367 -77.9672 59° Northeast 165 190 11,300 960 Climbing Washington Center
14:15 37.5628 -77.9131 59° Northeast 171 197 12,300 840 Climbing Washington Center
14:16 37.5908 -77.8561 58° Northeast 176 203 13,000 300 Climbing Washington Center
14:17 37.6233 -77.7889 59° Northeast 189 217 13,000  Level Washington Center
14:18 37.6581 -77.7192 58° Northeast 210 242 13,000  Level Washington Center
14:19 37.6925 -77.6494 58° Northeast 223 257 13,000  Level Washington Center
14:20 37.7272 -77.5767 59° Northeast 234 269 13,000  Level Washington Center
14:21 37.7617 -77.5042 59° Northeast 234 269 13,000  Level Washington Center
14:22 37.7964 -77.4314 59° Northeast 234 269 13,000  Level Washington Center
14:23 37.8308 -77.3586 59° Northeast 234 269 13,000  Level Washington Center
14:24 37.8650 -77.2883 58° Northeast 234 269 13,000  Level Washington Center
14:25 37.8994 -77.2156 59° Northeast 234 269 13,000  Level Washington Center
14:26 37.9358 -77.1425 58° Northeast 234 269 13,000  Level Washington Center
14:27 37.9700 -77.0747 57° Northeast 234 269 13,000  Level Washington Center
14:28 38.0044 -77.0017 59° Northeast 234 269 13,000  Level Washington Center
14:29 38.0364 -76.9311 60° Northeast 234 269 13,000  Level Washington Center
14:30 38.0706 -76.8606 58° Northeast 234 269 13,000  Level Washington Center
14:31 38.1025 -76.7925 59° Northeast 234 269 13,000 -480 Level Washington Center
14:32 38.1344 -76.7242 59° Northeast 229 264 12,100 -900 Descending Washington Center
14:33 38.1664 -76.6561 59° Northeast 229 264 11,200 -960 Descending Washington Center
14:34 38.2147 -76.6144 34° Northeast 215 247 10,200 -1,140 Descending Washington Center
14:35 38.2419 -76.6017 20° North 209 241 9,500 -840 Descending Washington Center
14:35 38.2631 -76.5781 41° Northeast 208 239 9,400 -660 Descending Washington Center
14:36 38.2861 -76.5653 24° Northeast 210 242 8,900 -840 Descending Washington Center
14:36 38.3133 -76.5417 34° Northeast 208 239 8,600 -840 Descending Washington Center
14:37 38.3406 -76.5208 31° Northeast 209 241 8,100 -840 Descending Washington Center
14:37 38.3636 -76.5025 32° Northeast 208 239 7,800 -840 Descending Washington Center
14:38 38.3931 -76.4792 32° Northeast 207 238 7,200 -840 Descending Washington Center
14:38 38.4119 -76.4636 33° Northeast 208 239 7,000 -900 Descending Washington Center
14:39 38.4475 -76.4400 27° Northeast 209 241 6,300 -840 Descending Washington Center
14:39 38.4600 -76.4269 39° Northeast 203 234 6,200 -900 Descending Washington Center
14:40 38.4958 -76.3981 32° Northeast 206 237 5,400 -900 Descending Washington Center
14:40 38.5083 -76.3875 33° Northeast 203 234 5,300 -240 Descending Washington Center
14:41 38.5567 -76.3508 31° Northeast 203 234 5,100 -120 Descending Washington Center
14:42 38.6006 -76.3142 33° Northeast 197 227 5,100  Level Washington Center
14:43 38.6486 -76.2933 19° North 185 213 5,100  Level Washington Center
14:44 38.6986 -76.2781 13° North 180 207 5,100 -540 Level Washington Center
14:46 38.7667 -76.2167 35° Northeast 185 213 3,800 -840 Descending Potomac TRACON
14:47 38.8167 -76.1833 27° Northeast 185 213 3,000 -480 Descending Potomac TRACON
14:48 38.8500 -76.1500 38° Northeast 180 207 2,900 -480 Descending Potomac TRACON
14:49 38.8833 -76.1333 21° North 174 200 2,100 -480 Descending Potomac TRACON
14:50 38.9333 -76.1333 360° North 161 185 2,100  Level Potomac TRACON
14:51 38.9500 -76.1833 293° West 142 163 2,100 -300 Level Potomac TRACON
14:52 38.9500 -76.2167 270° West 136 157 1,600 -540 Descending Potomac TRACON